Cape Broyle, Canada
Current Conditions -  °F | °C
As of 6:00 PM on Sunday 23 Nov 2014 (Local Time) from CYYT Reporting Station
Few Clouds Few Clouds  
Wind Chill: 23°   Ceiling: Unl
Heat Index: 34°   Visibility: 15mi
Dew Point: 28°   Wind: 18mph
Humidity: 81%   Direction: 270°W
Pressure: 29.78"   Gusts: 25mph
Location:  47.08°N, 52.95°W
Report Text: CYYT 232100Z 27016G22KT 15SM FEW020 01/M02 A2978 RMK SC2 SLP089
Loading
Personal Weather Stations






























Interactive Weather Map New forecast layout! Learn more

10-Day Weather Forecast

Advertisements
Track Severe Weather on mobile